Haslet, TX (76052)

12:21 PM CDT on March 29, 2017 (GMT -0500)
Haslet Park | | Change Station

Elev 748 ft 32.96 °N, 97.35 °W | Updated 24 seconds ago

Partly Cloudy
Partly Cloudy
73.9 °F
Feels Like 77 °F
N
11.4
Wind Variable Wind from SSW

Today
High -- | Low -- °F
--% Chance of Precip.
Yesterday
High -- | Low -- °F
Precip. -- in
Pressure 29.69 in
Visibility 10.0 miles
Clouds Few 3500 ft
Few 25000 ft
Heat Index 77 °F
Dew Point 54 °F
Humidity 49%
Rainfall 0.49 in
Snow Depth Not available.
7:20 AM 7:47 PM
Waxing Crescent, 4% visible
METAR KAFW 291653Z 20012G21KT 10SM FEW035 FEW250 23/12 A2972 RMK AO2 SLP052 T02330122
Pressure 29.69 in
Visibility 10.0 miles
Clouds Few 3500 ft
Few 25000 ft
Heat Index 77 °F
Dew Point 54 °F
Humidity 49%
Rainfall 0.49 in
Snow Depth Not available.
7:20 AM 7:47 PM
Waxing Crescent, 4% visible
METAR KAFW 291653Z 20012G21KT 10SM FEW035 FEW250 23/12 A2972 RMK AO2 SLP052 T02330122

Get Severe Weather Alerts

Thanks for signing up!

Be on the lookout for a verification email in your inbox.

You'll start receiving the daily forecast at 8 AM.

×

10-Day Weather Forecast

Almanac

Astronomy

Mar. 29, 2017 Rise Set
Actual Time
Civil Twilight
Nautical Twilight
Astronomical Twilight
Moon
Length of Visible Light
Length of Day
Tomorrow will be .
, % of the Moon is Illuminated

Today's Extremes

State Highs State Lows

Community

WunderPhotos

Upload Photos

1,962,540 photos uploaded!

WunderBlog® & News

Nearby

Air Quality

  Air Quality AQ Index Pollutant
Not available.

Snow Depth

Station Depth Elevation

Earthquake Activity

City Distance Mag. Time & Date
Minimum magnitude displayed is 2.5.

Earthquake Activity

City Distance Mag. Time & Date
Minimum magnitude displayed is 2.5.

Coastal Water Temperatures

Place Temperature

Stations

Nearby Weather Stations

Station Location Temp. Windchill Dew Point Humidity Wind Precip. Elev Updated Type
                   

Watches & Warnings

There are currently no watches in effect.